Airport ID:CXW
Update Time (UTC):28/11/2021 23:49
Wind Speed (Knots):3
Wind Direction (Magnetic):40
Temperature (°C):11
Dew Point (°C):2
Humidity (%):55
Altimeter (inHg):30.16
Density Altitude (Feet):
Visibility (Miles):7
Clouds (Hundreds of feet):CLR
Present Weather:
METAR:METAR CXW 282345Z AUTO 00000KT 5SM HZ CLR 11/02 A3016 RMK A01

The data displayed is for advisory purposes only and is not to be used for flight planning or operations.